KSAR

Details ICAO KSAR
Name SPARTA COMMUNITY HUNTER FLD
Region United States
Timezone America/Chicago (UTC-6.0)
Plans Departing 0
Arriving 1
Stats Elevation 538 ft / 164 m (AMSL)
Location 38.148662° -89.698447°
Runways 2
Magnetic Variation 1.859° W
Sunrise 2017-12-18 13:11:28 UTC / 2017-12-18 07:11:28 Local
Sunset 2017-12-18 22:42:17 UTC / 2017-12-18 16:42:17 Local
Advertisement - Login to hide

Runways

ID Width Length Bearing (true) Bearing (mag) Surface Threshold Offset Overrun Length
09 135 ft / 41 m 2,433 ft / 742 m 90.00° 91.86° Grass 0 ft / 0 m 0 ft / 0 m
18 60 ft / 18 m 4,005 ft / 1,221 m 180.25° 182.11° Asphalt 0 ft / 0 m 0 ft / 0 m
27 135 ft / 41 m 2,433 ft / 742 m 270.00° 271.86° Grass 0 ft / 0 m 0 ft / 0 m
36 60 ft / 18 m 4,005 ft / 1,221 m 0.25° 2.11° Asphalt 0 ft / 0 m 0 ft / 0 m

Map

Weather


0- 5 10 15 20 25 30 35+ Temperature / ° C

Clouds and Precipitation
Forecast for 2017-12-18 18:00 UTC. Updated 2 hours ago

Ground ~20,000 ft ~40,000 ft Winds

METAR

KSAR 181635Z AUTO 23006KT 10SM SCT010 BKN021 OVC030 08/08 A3012 RMK AO2 T00820081

TAF

Not found

Frequencies

Recorded 118.37 MHz AWOS 3
Approach 125.20 MHz ST LOUIS APP/DEP
Unicom 122.80 MHz CTAF/UNICOM
Warning: Do not use this data for real-world aviation or navigation. No guarantee of current accuracy is given.